Terminal Aerodrome Forecast
Issued by NWS Nashville, TN

Home | Current Version | Previous Version | Text Only | Print | Product List | Glossary On
Versions: 1 2 3 4 5 6 7 8 9 10 11 12 13 14 15 16 17 18 19 20 21 22 23 24 25 26 27 28 29 30 31 32 33 34 35 36 37 38 39
000
FTUS44 KOHX 172320
TAFBNA
TAF
KBNA 172320Z 1800/1824 25010KT P6SM BKN020 OVC250
     FM180100 27006KT P6SM BKN250
     FM180300 29005KT P6SM OVC020
     FM180600 32005KT 3SM BR OVC015
     FM180800 33004KT 3SM BR OVC009
     FM181500 00000KT P6SM OVC015=

USA.gov is the U.S. government's official web portal to all federal, state and local government web resources and services.